createdAt,value
2017-08-08T00:00:50.126Z,92.03
2017-08-08T00:02:58.689Z,92.28
2017-08-08T00:03:58.348Z,92.38
2017-08-08T00:04:58.646Z,92.66
2017-08-08T00:05:58.636Z,92.28
2017-08-08T00:06:58.620Z,92.85
2017-08-08T00:07:58.312Z,92.57
2017-08-08T00:08:58.277Z,93.05
2017-08-08T00:09:58.266Z,92.85
2017-08-08T00:10:58.556Z,93.53
2017-08-08T00:11:58.543Z,93.24
2017-08-08T00:12:58.528Z,93.53
2017-08-08T00:13:58.217Z,93.53
2017-08-08T00:14:58.495Z,93.72
2017-08-08T00:15:58.178Z,93.62
2017-08-08T00:16:58.475Z,93.62
2017-08-08T00:17:58.156Z,93.53
2017-08-08T00:18:58.438Z,93.72
2017-08-08T00:19:58.426Z,93.82
2017-08-08T00:20:58.409Z,93.24
2017-08-08T00:21:58.386Z,93.33
2017-08-08T00:22:58.069Z,93.33
2017-08-08T00:23:58.364Z,93.33
2017-08-08T00:24:58.364Z,93.53
2017-08-08T00:25:58.335Z,94.01
2017-08-08T00:26:58.314Z,93.82
2017-08-08T00:27:58.306Z,93.91
2017-08-08T00:28:58.119Z,93.82
2017-08-08T00:29:58.279Z,93.72
2017-08-08T00:30:57.955Z,93.72
2017-08-08T00:31:58.247Z,94.3
2017-08-08T00:32:57.928Z,93.53
2017-08-08T00:33:57.908Z,93.82
2017-08-08T00:34:58.209Z,94.2
2017-08-08T00:35:58.187Z,93.91
2017-08-08T00:36:58.190Z,94.01
2017-08-08T00:37:58.160Z,94.49
2017-08-08T00:38:58.143Z,94.2
2017-08-08T00:39:58.136Z,94.2
2017-08-08T00:40:57.807Z,94.59
2017-08-08T00:41:57.790Z,94.1
2017-08-08T00:42:58.079Z,94.2
2017-08-08T00:43:58.066Z,93.82
2017-08-08T00:44:58.056Z,94.4
2017-08-08T00:45:57.734Z,94.1
2017-08-08T00:46:58.251Z,94.49
2017-08-08T00:47:58.018Z,94.97
2017-08-08T00:48:57.989Z,94.64
2017-08-08T00:49:57.987Z,94.35
2017-08-08T00:50:57.656Z,94.64
2017-08-08T00:51:57.951Z,95.02
2017-08-08T00:52:57.952Z,94.54
2017-08-08T00:53:57.926Z,95.21
2017-08-08T00:54:57.610Z,94.45
2017-08-08T00:55:57.899Z,95.31
2017-08-08T00:56:57.868Z,94.73
2017-08-08T00:57:57.858Z,94.73
2017-08-08T00:58:57.846Z,94.59
2017-08-08T00:59:57.829Z,95.21
2017-08-08T01:00:57.823Z,95.12
2017-08-08T01:01:57.801Z,95.02
2017-08-08T01:02:57.788Z,95.02
2017-08-08T01:03:57.767Z,95.21
2017-08-08T01:04:57.457Z,95.02
2017-08-08T01:05:57.739Z,95.02
2017-08-08T01:06:57.718Z,95.21
2017-08-08T01:07:57.702Z,95.12
2017-08-08T01:08:57.689Z,95.21
2017-08-08T01:09:57.369Z,95.21
2017-08-08T01:10:57.661Z,95.31
2017-08-08T01:11:57.656Z,96.08
2017-08-08T01:12:57.337Z,95.79
2017-08-08T01:13:57.620Z,95.7
2017-08-08T01:14:57.618Z,96.17
2017-08-08T01:15:57.591Z,95.98
2017-08-08T01:16:57.577Z,96.08
2017-08-08T01:17:57.572Z,96.66
2017-08-08T01:18:57.547Z,96.17
2017-08-08T01:19:57.534Z,96.17
2017-08-08T01:20:57.521Z,96.08
2017-08-08T01:21:57.509Z,96.47
2017-08-08T01:22:57.479Z,96.17
2017-08-08T01:23:57.477Z,96.17
2017-08-08T01:24:57.448Z,95.79
2017-08-08T01:25:57.125Z,95.7
2017-08-08T01:26:57.415Z,95.98
2017-08-08T01:27:57.114Z,95.98
2017-08-08T01:28:57.091Z,95.5
2017-08-08T01:29:57.084Z,95.7
2017-08-08T01:30:57.359Z,96.08
2017-08-08T01:31:57.346Z,95.6
2017-08-08T01:32:57.024Z,95.89
2017-08-08T01:33:57.312Z,95.79
2017-08-08T01:34:57.313Z,95.89
2017-08-08T01:35:57.284Z,95.79
2017-08-08T01:36:56.974Z,95.98
2017-08-08T01:37:56.944Z,96.08
2017-08-08T01:38:57.254Z,95.98
2017-08-08T01:39:56.926Z,96.08
2017-08-08T01:40:57.204Z,95.79
2017-08-08T01:41:57.190Z,95.98
2017-08-08T01:42:57.192Z,96.08
2017-08-08T01:43:57.165Z,96.27
2017-08-08T01:44:57.255Z,96.17
2017-08-08T01:45:57.135Z,95.84
2017-08-08T01:46:57.111Z,96.08
2017-08-08T01:47:57.125Z,96.17
2017-08-08T01:48:57.085Z,95.79
2017-08-08T01:49:57.075Z,95.5
2017-08-08T01:50:56.755Z,95.65
2017-08-08T01:51:57.044Z,95.89
2017-08-08T01:52:56.718Z,95.84
2017-08-08T01:53:57.025Z,96.61
2017-08-08T01:54:56.692Z,96.7
2017-08-08T01:55:56.984Z,96.51
2017-08-08T01:56:56.655Z,96.8
2017-08-08T01:57:56.641Z,96.61
2017-08-08T01:58:56.935Z,96.9
2017-08-08T01:59:56.920Z,96.61
2017-08-08T02:00:56.904Z,96.42
2017-08-08T02:01:56.884Z,97.19
2017-08-08T02:02:56.867Z,96.9
2017-08-08T02:03:56.854Z,96.9
2017-08-08T02:04:56.879Z,97.47
2017-08-08T02:05:56.824Z,97.09
2017-08-08T02:06:56.822Z,97.09
2017-08-08T02:07:56.486Z,97.38
2017-08-08T02:08:56.775Z,97.09
2017-08-08T02:09:56.456Z,97.47
2017-08-08T02:10:56.434Z,96.9
2017-08-08T02:11:56.431Z,96.99
2017-08-08T02:12:56.717Z,97.47
2017-08-08T02:13:56.703Z,97.19
2017-08-08T02:14:56.687Z,97.38
2017-08-08T02:15:56.674Z,97.19
2017-08-08T02:16:56.655Z,97.86
2017-08-08T02:17:56.634Z,97.33
2017-08-08T02:18:56.625Z,97.24
2017-08-08T02:19:56.305Z,97.42
2017-08-08T02:20:56.287Z,97.28
2017-08-08T02:21:56.575Z,97.33
2017-08-08T02:22:56.553Z,97.47
2017-08-08T02:23:56.545Z,97.57
2017-08-08T02:24:56.226Z,97.62
2017-08-08T02:25:56.519Z,97.57
2017-08-08T02:26:56.495Z,97.86
2017-08-08T02:27:56.484Z,97.38
2017-08-08T02:28:56.475Z,97.86
2017-08-08T02:29:56.455Z,98.05
2017-08-08T02:30:56.436Z,97.96
2017-08-08T02:31:56.424Z,98.48
2017-08-08T02:32:56.099Z,97.71
2017-08-08T02:33:56.385Z,97.52
2017-08-08T02:34:56.374Z,98.1
2017-08-08T02:35:56.051Z,97.81
2017-08-08T02:36:56.033Z,98.05
2017-08-08T02:37:56.015Z,98.14
2017-08-08T02:38:56.314Z,97.91
2017-08-08T02:39:56.293Z,97.86
2017-08-08T02:40:56.285Z,97.81
2017-08-08T02:41:56.265Z,97.91
2017-08-08T02:42:55.943Z,97.52
2017-08-08T02:43:56.231Z,97.71
2017-08-08T02:44:56.223Z,97.81
2017-08-08T02:45:56.192Z,97.33
2017-08-08T02:46:56.188Z,97.33
2017-08-08T02:47:56.164Z,97.62
2017-08-08T02:48:55.845Z,97.62
2017-08-08T02:49:56.143Z,97.81
2017-08-08T02:50:56.122Z,97.62
2017-08-08T02:51:55.804Z,98
2017-08-08T02:52:56.084Z,97.24
2017-08-08T02:53:55.767Z,97.42
2017-08-08T02:54:56.055Z,97.33
2017-08-08T02:55:56.044Z,97.81
2017-08-08T02:56:56.023Z,97.62
2017-08-08T02:57:56.012Z,97.62
2017-08-08T02:58:55.686Z,97.91
2017-08-08T02:59:55.986Z,97.91
2017-08-08T03:00:55.666Z,97.62
2017-08-08T03:01:55.943Z,97.91
2017-08-08T03:02:55.937Z,97.91
2017-08-08T03:03:55.924Z,98.19
2017-08-08T03:04:55.895Z,98.48
2017-08-08T03:05:55.573Z,98
2017-08-08T03:06:55.578Z,98
2017-08-08T03:07:55.856Z,97.62
2017-08-08T03:08:55.835Z,97.81
2017-08-08T03:09:55.821Z,97.91
2017-08-08T03:10:55.505Z,98.1
2017-08-08T03:11:55.791Z,97.81
2017-08-08T03:12:55.474Z,98.19
2017-08-08T03:13:55.766Z,98.29
2017-08-08T03:14:55.748Z,98.39
2017-08-08T03:15:55.424Z,98.39
2017-08-08T03:16:55.404Z,97.81
2017-08-08T03:17:55.697Z,97.91
2017-08-08T03:18:55.701Z,98.19
2017-08-08T03:19:55.364Z,98.48
2017-08-08T03:20:55.344Z,98.29
2017-08-08T03:21:55.651Z,98.68
2017-08-08T03:22:55.620Z,98.68
2017-08-08T03:23:55.602Z,98.86
2017-08-08T03:24:55.286Z,99.06
2017-08-08T03:25:55.575Z,99.15
2017-08-08T03:26:55.555Z,99.83
2017-08-08T03:27:55.542Z,99.49
2017-08-08T03:28:55.522Z,99.78
2017-08-08T03:29:55.213Z,99.73
2017-08-08T03:30:55.489Z,99.87
2017-08-08T03:31:55.175Z,99.97
2017-08-08T03:32:55.156Z,99.99
2017-08-08T03:33:55.440Z,99.78
2017-08-08T03:34:55.429Z,99.68
2017-08-08T03:35:55.420Z,99.49
2017-08-08T03:36:55.396Z,99.49
2017-08-08T03:37:55.408Z,99.4
2017-08-08T03:38:55.369Z,99.78
2017-08-08T03:39:55.441Z,99.58
2017-08-08T03:40:55.332Z,99.78
2017-08-08T03:41:55.390Z,99.49
2017-08-08T03:42:55.306Z,99.78
2017-08-08T03:43:55.094Z,99.3
2017-08-08T03:44:55.273Z,99.4
2017-08-08T03:45:55.273Z,99.78
2017-08-08T03:46:55.244Z,99.49
2017-08-08T03:47:55.324Z,99.68
2017-08-08T03:48:55.228Z,99.4
2017-08-08T03:49:54.924Z,99.3
2017-08-08T03:50:55.177Z,99.3
2017-08-08T03:51:55.263Z,99.68
2017-08-08T03:52:55.165Z,99.78
2017-08-08T03:53:55.149Z,99.58
2017-08-08T03:54:55.114Z,99.49
2017-08-08T03:55:55.148Z,99.2
2017-08-08T03:56:55.085Z,98.91
2017-08-08T03:57:55.075Z,98.82
2017-08-08T03:58:54.752Z,99.1
2017-08-08T03:59:55.030Z,98.91
2017-08-08T04:00:54.713Z,98.68
2017-08-08T04:01:54.709Z,98.48
2017-08-08T04:02:54.984Z,98.29
2017-08-08T04:03:54.963Z,98.48
2017-08-08T04:04:54.955Z,98.96
2017-08-08T04:05:54.627Z,98.48
2017-08-08T04:06:54.612Z,98.43
2017-08-08T04:07:54.648Z,98.53
2017-08-08T04:08:54.903Z,98.68
2017-08-08T04:09:54.865Z,98.29
2017-08-08T04:10:54.867Z,98.48
2017-08-08T04:11:54.892Z,97.71
2017-08-08T04:12:54.842Z,98.29
2017-08-08T04:13:54.507Z,98.19
2017-08-08T04:14:54.494Z,98.29
2017-08-08T04:15:54.780Z,98.39
2017-08-08T04:16:54.833Z,98.58
2017-08-08T04:17:54.753Z,97.52
2017-08-08T04:18:54.792Z,97.91
2017-08-08T04:19:54.722Z,98
2017-08-08T04:20:54.703Z,98
2017-08-08T04:21:54.682Z,97.62
2017-08-08T04:22:54.359Z,97.91
2017-08-08T04:23:54.646Z,97.52
2017-08-08T04:24:54.657Z,97.71
2017-08-08T04:25:54.313Z,97.42
2017-08-08T04:26:54.612Z,97.42
2017-08-08T04:27:54.592Z,97.33
2017-08-08T04:28:54.571Z,97.91
2017-08-08T04:29:54.253Z,97.91
2017-08-08T04:30:54.240Z,98
2017-08-08T04:31:54.222Z,97.91
2017-08-08T04:32:54.513Z,97.52
2017-08-08T04:33:54.183Z,97.81
2017-08-08T04:34:54.183Z,97.62
2017-08-08T04:35:54.463Z,97.33
2017-08-08T04:36:54.453Z,97.24
2017-08-08T04:37:54.122Z,96.75
2017-08-08T04:38:54.420Z,96.56
2017-08-08T04:39:54.403Z,96.85
2017-08-08T04:40:54.088Z,96.47
2017-08-08T04:41:54.371Z,96.66
2017-08-08T04:42:54.353Z,96.51
2017-08-08T04:43:54.032Z,96.37
2017-08-08T04:44:54.013Z,97.04
2017-08-08T04:45:54.318Z,96.85
2017-08-08T04:46:54.295Z,97.04
2017-08-08T04:47:53.982Z,97.33
2017-08-08T04:48:54.270Z,97.91
2017-08-08T04:49:53.947Z,97.33
2017-08-08T04:50:53.921Z,97.62
2017-08-08T04:51:54.208Z,97.24
2017-08-08T04:52:54.201Z,96.99
2017-08-08T04:53:53.874Z,96.9
2017-08-08T04:54:53.882Z,97.04
2017-08-08T04:55:54.152Z,97.19
2017-08-08T04:56:53.822Z,97.04
2017-08-08T04:57:54.127Z,96.47
2017-08-08T04:58:54.103Z,96.7
2017-08-08T04:59:54.087Z,96.61
2017-08-08T05:00:54.072Z,97.19
2017-08-08T05:01:54.082Z,96.7
2017-08-08T05:02:54.054Z,97.19
2017-08-08T05:03:53.718Z,96.7
2017-08-08T05:04:54.024Z,96.13
2017-08-08T05:05:54.021Z,96.61
2017-08-08T05:06:53.985Z,96.61
2017-08-08T05:07:53.960Z,96.8
2017-08-08T05:08:53.954Z,97.33
2017-08-08T05:09:53.933Z,96.94
2017-08-08T05:10:53.941Z,96.47
2017-08-08T05:11:53.906Z,96.22
2017-08-08T05:12:53.883Z,96.7
2017-08-08T05:13:53.863Z,97.09
2017-08-08T05:14:53.866Z,96.61
2017-08-08T05:15:53.859Z,97.09
2017-08-08T05:16:53.826Z,96.42
2017-08-08T05:17:53.812Z,96.13
2017-08-08T05:18:53.794Z,96.61
2017-08-08T05:19:53.778Z,96.32
2017-08-08T05:20:53.760Z,95.65
2017-08-08T05:21:53.752Z,95.75
2017-08-08T05:22:53.741Z,95.84
2017-08-08T05:23:53.723Z,95.75
2017-08-08T05:24:53.394Z,95.84
2017-08-08T05:25:53.389Z,96.22
2017-08-08T05:26:53.363Z,96.32
2017-08-08T05:27:53.350Z,96.13
2017-08-08T05:28:53.642Z,96.42
2017-08-08T05:29:53.334Z,96.22
2017-08-08T05:30:53.314Z,96.7
2017-08-08T05:31:53.591Z,95.65
2017-08-08T05:32:53.643Z,96.03
2017-08-08T05:33:53.563Z,96.61
2017-08-08T05:34:53.673Z,96.32
2017-08-08T05:35:53.231Z,96.32
2017-08-08T05:36:53.602Z,95.94
2017-08-08T05:37:53.503Z,96.22
2017-08-08T05:38:53.492Z,96.7
2017-08-08T05:39:53.477Z,96.42
2017-08-08T05:40:53.163Z,96.7
2017-08-08T05:41:53.459Z,97.09
2017-08-08T05:42:53.154Z,97.38
2017-08-08T05:43:53.103Z,97.19
2017-08-08T05:44:53.403Z,96.99
2017-08-08T05:45:53.384Z,96.9
2017-08-08T05:46:53.461Z,96.8
2017-08-08T05:47:53.062Z,96.99
2017-08-08T05:48:53.354Z,97.09
2017-08-08T05:49:53.318Z,97.09
2017-08-08T05:50:53.356Z,97.28
2017-08-08T05:51:52.988Z,97.96
2017-08-08T05:52:53.009Z,97.38
2017-08-08T05:53:53.271Z,96.61
2017-08-08T05:54:53.292Z,97.38
2017-08-08T05:55:53.242Z,97.28
2017-08-08T05:56:53.361Z,97.09
2017-08-08T05:57:53.213Z,96.8
2017-08-08T05:58:53.283Z,96.9
2017-08-08T05:59:52.863Z,97.09
2017-08-08T06:00:52.880Z,97.19
2017-08-08T06:01:52.873Z,97.57
2017-08-08T06:02:53.162Z,97.86
2017-08-08T06:03:53.210Z,97.09
2017-08-08T06:04:52.803Z,97.28
2017-08-08T06:05:53.073Z,97.19
2017-08-08T06:06:53.064Z,97.09
2017-08-08T06:07:52.743Z,97.28
2017-08-08T06:08:53.045Z,97.04
2017-08-08T06:09:53.091Z,97.52
2017-08-08T06:10:53.051Z,98
2017-08-08T06:11:53.083Z,98.34
2017-08-08T06:12:52.975Z,97.91
2017-08-08T06:13:53.050Z,97.42
2017-08-08T06:14:52.944Z,98
2017-08-08T06:15:53.026Z,98.39
2017-08-08T06:16:52.683Z,99.06
2017-08-08T06:17:52.900Z,98.77
2017-08-08T06:18:53.082Z,98.29
2017-08-08T06:19:52.863Z,98.49
2017-08-08T06:20:52.842Z,98.49
2017-08-08T06:21:52.847Z,99.54
2017-08-08T06:22:52.818Z,99.06
2017-08-08T06:23:52.812Z,98.68
2017-08-08T06:24:52.787Z,99.64
2017-08-08T06:25:52.777Z,98.77
2017-08-08T06:26:52.767Z,98.49
2017-08-08T06:27:52.743Z,98.63
2017-08-08T06:28:52.730Z,98.63
2017-08-08T06:29:52.736Z,97.76
2017-08-08T06:30:52.710Z,97.47
2017-08-08T06:31:52.691Z,97.28
2017-08-08T06:32:52.688Z,97.19
2017-08-08T06:33:52.355Z,97.42
2017-08-08T06:34:52.643Z,97.09
2017-08-08T06:35:52.627Z,96.56
2017-08-08T06:36:52.310Z,96.37
2017-08-08T06:37:52.614Z,97.04
2017-08-08T06:38:52.580Z,97.42
2017-08-08T06:39:52.263Z,96.56
2017-08-08T06:40:52.555Z,96.66
2017-08-08T06:41:52.544Z,95.84
2017-08-08T06:42:52.525Z,95.84
2017-08-08T06:43:52.217Z,96.03
2017-08-08T06:44:52.501Z,96.22
2017-08-08T06:45:52.483Z,95.94
2017-08-08T06:46:52.476Z,95.94
2017-08-08T06:47:52.452Z,95.64
2017-08-08T06:48:52.441Z,95.16
2017-08-08T06:49:52.421Z,94.63
2017-08-08T06:50:52.421Z,93.43
2017-08-08T06:51:52.410Z,93.62
2017-08-08T06:52:52.413Z,92.94
2017-08-08T06:53:52.378Z,93.81
2017-08-08T06:54:52.353Z,93.24
2017-08-08T06:55:52.037Z,93.14
2017-08-08T06:56:52.329Z,93.62
2017-08-08T06:57:52.315Z,94.59
2017-08-08T06:58:52.318Z,94.82
2017-08-08T06:59:52.295Z,94.44
2017-08-08T07:00:52.281Z,93.66
2017-08-08T07:01:52.273Z,93.66
2017-08-08T07:02:52.254Z,93.86
2017-08-08T07:03:51.931Z,93.76
2017-08-08T07:04:52.223Z,93.76
2017-08-08T07:05:51.905Z,93.86
2017-08-08T07:06:51.883Z,93.81
2017-08-08T07:07:52.194Z,93.33
2017-08-08T07:08:52.167Z,93.33
2017-08-08T07:09:51.853Z,93.04
2017-08-08T07:10:52.162Z,93.33
2017-08-08T07:11:52.125Z,92.08
2017-08-08T07:12:51.803Z,92.94
2017-08-08T07:13:52.103Z,92.65
2017-08-08T07:14:52.101Z,92.46
2017-08-08T07:15:51.778Z,92.8
2017-08-08T07:16:52.063Z,92.32
2017-08-08T07:17:52.044Z,92.7
2017-08-08T07:18:51.736Z,91.93
2017-08-08T07:19:52.234Z,91.54
2017-08-08T07:20:52.019Z,92.02
2017-08-08T07:21:52.016Z,92.5
2017-08-08T07:22:51.987Z,91.74
2017-08-08T07:23:51.981Z,92.22
2017-08-08T07:24:51.657Z,92.07
2017-08-08T07:25:51.954Z,91.3
2017-08-08T07:26:51.934Z,91.2
2017-08-08T07:27:51.952Z,90.05
2017-08-08T07:28:51.916Z,90.53
2017-08-08T07:29:51.604Z,90.05
2017-08-08T07:30:51.585Z,90.14
2017-08-08T07:31:51.581Z,91.16
2017-08-08T07:32:51.553Z,90.19
2017-08-08T07:33:51.546Z,89.85
2017-08-08T07:34:51.834Z,90.43
2017-08-08T07:35:51.825Z,90.47
2017-08-08T07:36:51.814Z,88.35
2017-08-08T07:37:51.855Z,89.12
2017-08-08T07:38:51.794Z,88.93
2017-08-08T07:39:51.775Z,88.73
2017-08-08T07:40:51.759Z,89.99
2017-08-08T07:41:51.751Z,89.84
2017-08-08T07:42:51.754Z,88.87
2017-08-08T07:43:51.724Z,89.07
2017-08-08T07:44:51.717Z,89.17
2017-08-08T07:45:51.406Z,89.26
2017-08-08T07:46:51.396Z,88.1
2017-08-08T07:47:51.679Z,89.17
2017-08-08T07:48:51.677Z,90.37
2017-08-08T07:49:51.652Z,89.41
2017-08-08T07:50:51.642Z,89.51
2017-08-08T07:51:51.656Z,89.22
2017-08-08T07:52:51.630Z,88.45
2017-08-08T07:53:51.613Z,89.03
2017-08-08T07:54:51.292Z,88.06
2017-08-08T07:55:51.585Z,88.79
2017-08-08T07:56:51.586Z,89.27
2017-08-08T07:57:51.560Z,89.75
2017-08-08T07:58:51.544Z,90.09
2017-08-08T07:59:51.236Z,90.33
2017-08-08T08:00:51.524Z,90.53
2017-08-08T08:01:51.516Z,90.81
2017-08-08T08:02:51.215Z,89.95
2017-08-08T08:03:51.490Z,90.72
2017-08-08T08:04:51.478Z,91.44
2017-08-08T08:05:51.473Z,91.98
2017-08-08T08:06:51.454Z,91.5
2017-08-08T08:07:51.456Z,90.77
2017-08-08T08:08:51.426Z,90.38
2017-08-08T08:09:51.413Z,90.38
2017-08-08T08:10:51.158Z,90.77
2017-08-08T08:11:51.385Z,91.69
2017-08-08T08:12:51.373Z,92.94
2017-08-08T08:13:51.381Z,92.22
2017-08-08T08:14:51.346Z,93.28
2017-08-08T08:15:51.027Z,93.57
2017-08-08T08:16:51.325Z,93.86
2017-08-08T08:17:51.317Z,93.23
2017-08-08T08:18:51.303Z,93.04
2017-08-08T08:19:51.290Z,91.93
2017-08-08T08:20:51.095Z,91.83
2017-08-08T08:21:51.254Z,91.44
2017-08-08T08:22:51.264Z,91.35
2017-08-08T08:23:51.233Z,91.93
2017-08-08T08:24:51.225Z,91.93
2017-08-08T08:25:51.214Z,91.88
2017-08-08T08:26:51.214Z,91.3
2017-08-08T08:27:50.884Z,90.62
2017-08-08T08:28:51.178Z,90.57
2017-08-08T08:29:51.209Z,90.37
2017-08-08T08:30:51.167Z,89.7
2017-08-08T08:31:50.837Z,90.09
2017-08-08T08:32:51.124Z,90.57
2017-08-08T08:33:51.114Z,89.94
2017-08-08T08:34:50.803Z,91
2017-08-08T08:35:50.785Z,90.61
2017-08-08T08:36:51.087Z,91.19
2017-08-08T08:37:51.172Z,90.23
2017-08-08T08:38:51.078Z,90.33
2017-08-08T08:39:50.745Z,90.33
2017-08-08T08:40:51.125Z,90.23
2017-08-08T08:41:51.065Z,88.97
2017-08-08T08:42:50.702Z,90.03
2017-08-08T08:43:50.696Z,89.84
2017-08-08T08:44:50.984Z,90.08
2017-08-08T08:45:50.971Z,89.69
2017-08-08T08:46:50.953Z,90.33
2017-08-08T08:47:51.046Z,89.65
2017-08-08T08:48:50.624Z,89.55
2017-08-08T08:49:50.623Z,90.71
2017-08-08T08:50:50.604Z,90.71
2017-08-08T08:51:50.944Z,90.23
2017-08-08T08:52:50.891Z,89.36
2017-08-08T08:53:50.884Z,91.39
2017-08-08T08:54:50.860Z,90.81
2017-08-08T08:55:50.553Z,90.81
2017-08-08T08:56:50.540Z,91.19
2017-08-08T08:57:50.534Z,91.58
2017-08-08T08:58:50.825Z,90.47
2017-08-08T08:59:50.812Z,90.17
2017-08-08T09:00:50.486Z,91.14
2017-08-08T09:01:50.790Z,91.43
2017-08-08T09:02:50.481Z,91.43
2017-08-08T09:03:50.464Z,90.95
2017-08-08T09:04:50.751Z,90.17
2017-08-08T09:05:50.744Z,90.66
2017-08-08T09:06:50.447Z,90.85
2017-08-08T09:07:50.715Z,90.61
2017-08-08T09:08:50.705Z,90.66
2017-08-08T09:09:50.690Z,90.41
2017-08-08T09:10:50.683Z,90.51
2017-08-08T09:11:50.673Z,90.61
2017-08-08T09:12:50.355Z,91.28
2017-08-08T09:13:50.644Z,90.9
2017-08-08T09:14:50.634Z,89.64
2017-08-08T09:15:50.369Z,88.77
2017-08-08T09:16:50.613Z,89.54
2017-08-08T09:17:50.594Z,90.22
2017-08-08T09:18:50.595Z,90.12
2017-08-08T09:19:50.575Z,89.64
2017-08-08T09:20:50.565Z,90.32
2017-08-08T09:21:50.578Z,90.32
2017-08-08T09:22:50.543Z,90.12
2017-08-08T09:23:50.525Z,89.93
2017-08-08T09:24:50.528Z,90.03
2017-08-08T09:25:50.506Z,89.29
2017-08-08T09:26:50.503Z,90.17
2017-08-08T09:27:50.491Z,89.59
2017-08-08T09:28:50.481Z,89.88
2017-08-08T09:29:50.476Z,89.11
2017-08-08T09:30:50.463Z,88.62
2017-08-08T09:31:50.453Z,88.91
2017-08-08T09:32:50.448Z,88.53
2017-08-08T09:33:50.417Z,88.33
2017-08-08T09:34:50.416Z,88.91
2017-08-08T09:35:50.106Z,89.11
2017-08-08T09:36:50.407Z,89.01
2017-08-08T09:37:50.397Z,88.62
2017-08-08T09:38:50.387Z,88.85
2017-08-08T09:39:50.354Z,88.57
2017-08-08T09:40:50.345Z,90.31
2017-08-08T09:41:50.030Z,89.25
2017-08-08T09:42:50.313Z,89.05
2017-08-08T09:43:50.323Z,88.57
2017-08-08T09:44:50.308Z,89.34
2017-08-08T09:45:50.294Z,89.25
2017-08-08T09:46:50.284Z,89.39
2017-08-08T09:47:50.274Z,88.81
2017-08-08T09:48:50.258Z,89.48
2017-08-08T09:49:49.947Z,88.18
2017-08-08T09:50:49.938Z,88.81
2017-08-08T09:51:50.225Z,88.85
2017-08-08T09:52:50.234Z,88.67
2017-08-08T09:53:50.199Z,89.25
2017-08-08T09:54:50.193Z,88.76
2017-08-08T09:55:49.873Z,89.15
2017-08-08T09:56:50.184Z,89.34
2017-08-08T09:57:50.163Z,89.34
2017-08-08T09:58:49.845Z,88.67
2017-08-08T09:59:50.143Z,89.63
2017-08-08T10:00:49.827Z,89.15
2017-08-08T10:01:50.124Z,87.89
2017-08-08T10:02:49.811Z,87.5
2017-08-08T10:03:50.098Z,87.65
2017-08-08T10:04:49.781Z,87.65
2017-08-08T10:05:50.101Z,87.85
2017-08-08T10:06:50.061Z,87.95
2017-08-08T10:07:50.052Z,88.77
2017-08-08T10:08:50.039Z,89.11
2017-08-08T10:09:50.031Z,88.87
2017-08-08T10:10:49.720Z,88.77
2017-08-08T10:11:50.032Z,88.77
2017-08-08T10:12:50.215Z,90.61
2017-08-08T10:13:49.690Z,91.28
2017-08-08T10:14:49.994Z,90.84
2017-08-08T10:15:49.972Z,90.46
2017-08-08T10:16:49.955Z,90.26
2017-08-08T10:17:49.947Z,90.51
2017-08-08T10:18:49.939Z,90.41
2017-08-08T10:19:49.941Z,90.99
2017-08-08T10:20:49.922Z,90.12
2017-08-08T10:21:49.901Z,89.83
2017-08-08T10:22:49.890Z,90.61
2017-08-08T10:23:49.882Z,90.22
2017-08-08T10:24:49.953Z,91.19
2017-08-08T10:25:49.851Z,90.8
2017-08-08T10:26:49.842Z,90.99
2017-08-08T10:27:49.530Z,90.8
2017-08-08T10:28:49.831Z,91.82
2017-08-08T10:29:49.513Z,91.86
2017-08-08T10:30:49.841Z,92.35
2017-08-08T10:31:49.471Z,92.16
2017-08-08T10:32:49.471Z,92.64
2017-08-08T10:33:49.757Z,93.22
2017-08-08T10:34:49.821Z,92.83
2017-08-08T10:35:49.433Z,92.64
2017-08-08T10:36:49.770Z,91.58
2017-08-08T10:37:49.742Z,91.86
2017-08-08T10:38:49.696Z,92.93
2017-08-08T10:39:49.696Z,92.93
2017-08-08T10:40:49.778Z,93.02
2017-08-08T10:41:49.660Z,93.99
2017-08-08T10:42:49.711Z,91.96
2017-08-08T10:43:49.330Z,92.25
2017-08-08T10:44:49.683Z,92.74
2017-08-08T10:45:49.633Z,92.35
2017-08-08T10:46:49.607Z,92.83
2017-08-08T10:47:49.639Z,91.67
2017-08-08T10:48:49.333Z,91.48
2017-08-08T10:49:49.277Z,91.67
2017-08-08T10:50:49.611Z,92.06
2017-08-08T10:51:49.549Z,93.17
2017-08-08T10:52:49.541Z,92.79
2017-08-08T10:53:49.526Z,92.98
2017-08-08T10:54:49.520Z,92.11
2017-08-08T10:55:49.512Z,91.91
2017-08-08T10:56:49.487Z,92.21
2017-08-08T10:57:49.480Z,92.11
2017-08-08T10:58:49.471Z,92.49
2017-08-08T10:59:49.470Z,92.59
2017-08-08T11:00:49.154Z,92.79
2017-08-08T11:01:49.442Z,92.06
2017-08-08T11:02:49.420Z,92.54
2017-08-08T11:03:49.422Z,93.32
2017-08-08T11:04:49.403Z,93.02
2017-08-08T11:05:49.392Z,92.35
2017-08-08T11:06:49.386Z,92.74
2017-08-08T11:07:49.395Z,93.12
2017-08-08T11:08:49.062Z,93.02
2017-08-08T11:09:49.341Z,93.08
2017-08-08T11:10:49.021Z,93.22
2017-08-08T11:11:49.339Z,93.22
2017-08-08T11:12:49.321Z,93.08
2017-08-08T11:13:49.293Z,93.8
2017-08-08T11:14:48.972Z,93.37
2017-08-08T11:15:49.285Z,93.37
2017-08-08T11:16:48.955Z,93.51
2017-08-08T11:17:49.253Z,93.32
2017-08-08T11:18:49.258Z,93.6
2017-08-08T11:19:49.222Z,93.32
2017-08-08T11:20:49.220Z,94.18
2017-08-08T11:21:48.892Z,93.8
2017-08-08T11:22:48.881Z,94.18
2017-08-08T11:23:49.182Z,93.99
2017-08-08T11:24:49.158Z,94.18
2017-08-08T11:25:49.153Z,93.41
2017-08-08T11:26:49.153Z,93.27
2017-08-08T11:27:49.150Z,93.75
2017-08-08T11:28:49.123Z,94.24
2017-08-08T11:29:49.101Z,94.04
2017-08-08T11:30:49.094Z,94.14
2017-08-08T11:31:49.096Z,93.95
2017-08-08T11:32:49.068Z,94.43
2017-08-08T11:33:49.133Z,94.67
2017-08-08T11:34:49.058Z,94.28
2017-08-08T11:35:49.040Z,93.99
2017-08-08T11:36:49.035Z,93.02
2017-08-08T11:37:49.013Z,93.22
2017-08-08T11:38:48.706Z,93.9
2017-08-08T11:39:48.992Z,93.7
2017-08-08T11:40:48.986Z,93.95
2017-08-08T11:41:48.963Z,93.99
2017-08-08T11:42:48.643Z,94.09
2017-08-08T11:43:48.941Z,93.8
2017-08-08T11:44:49.040Z,93.8
2017-08-08T11:45:48.615Z,93.7
2017-08-08T11:46:48.971Z,93.02
2017-08-08T11:47:48.902Z,93.8
2017-08-08T11:48:48.580Z,94.28
2017-08-08T11:49:48.883Z,93.22
2017-08-08T11:50:48.549Z,94.09
2017-08-08T11:51:48.543Z,93.9
2017-08-08T11:52:48.527Z,94.57
2017-08-08T11:53:48.818Z,95.06
2017-08-08T11:54:48.815Z,94.86
2017-08-08T11:55:48.823Z,95.1
2017-08-08T11:56:48.490Z,94.91
2017-08-08T11:57:48.785Z,95.78
2017-08-08T11:58:48.760Z,95.98
2017-08-08T11:59:48.751Z,96.94
2017-08-08T12:00:48.750Z,97.33
2017-08-08T12:01:48.741Z,98
2017-08-08T12:02:48.716Z,98
2017-08-08T12:03:48.707Z,98.68
2017-08-08T12:04:48.388Z,99.46
2017-08-08T12:05:48.670Z,99.99
2017-08-08T12:06:48.360Z,99.99
2017-08-08T12:07:48.351Z,99.99
2017-08-08T12:08:48.656Z,99.65
2017-08-08T12:09:48.639Z,99.74
2017-08-08T12:10:48.622Z,99.89
2017-08-08T12:11:48.621Z,99.99
2017-08-08T12:12:48.291Z,99.99
2017-08-08T12:13:48.590Z,99.99
2017-08-08T12:14:48.266Z,99.99
2017-08-08T12:15:48.575Z,99.99
2017-08-08T12:16:48.553Z,99.99
2017-08-08T12:17:48.541Z,99.99
2017-08-08T12:18:48.522Z,99.99
2017-08-08T12:19:48.208Z,99.99
2017-08-08T12:20:48.190Z,99.99
2017-08-08T12:21:48.489Z,99.99
2017-08-08T12:22:48.470Z,99.99
2017-08-08T12:23:48.481Z,99.99
2017-08-08T12:24:48.152Z,99.99
2017-08-08T12:25:48.429Z,99.99
2017-08-08T12:26:48.410Z,99.99
2017-08-08T12:27:48.413Z,99.99
2017-08-08T12:28:48.411Z,99.99
2017-08-08T12:29:48.380Z,99.99
2017-08-08T12:30:48.086Z,99.99
2017-08-08T12:31:48.693Z,99.99
2017-08-08T12:32:48.358Z,99.99
2017-08-08T12:33:48.328Z,99.99
2017-08-08T12:34:48.317Z,99.99
2017-08-08T12:35:48.003Z,99.99
2017-08-08T12:36:48.000Z,99.99
2017-08-08T12:37:48.280Z,99.99
2017-08-08T12:38:48.289Z,99.99
2017-08-08T12:39:48.259Z,99.99
2017-08-08T12:40:48.255Z,99.99
2017-08-08T12:41:48.250Z,99.99
2017-08-08T12:42:48.222Z,99.99
2017-08-08T12:43:48.223Z,99.99
2017-08-08T12:44:48.202Z,99.99
2017-08-08T12:45:48.190Z,99.99
2017-08-08T12:46:48.182Z,99.99
2017-08-08T12:47:48.155Z,99.99
2017-08-08T12:48:48.163Z,99.99
2017-08-08T12:49:48.146Z,99.99
2017-08-08T12:50:48.123Z,99.99
2017-08-08T12:51:48.123Z,99.99
2017-08-08T12:52:48.154Z,99.99
2017-08-08T12:53:48.081Z,99.99
2017-08-08T12:54:48.110Z,99.99
2017-08-08T12:55:48.051Z,99.99
2017-08-08T12:56:48.053Z,99.99